Time;durP1;ratioP1;P1;durP2;ratioP2;P2;SDS_P1;SDS_P2;PMS_P1;PMS_P2;Temp;Humidity;BMP_temperature;BMP_pressure;BME280_temperature;BME280_humidity;BME280_pressure;Samples;Min_cycle;Max_cycle;Signal;HPM_P1;HPM_P2
2022/04/18 00:01:20;;;;;;;24.47;17.42;;;;;;;5.23;100.00;99731.21;1716562;82;21834;-83
2022/04/18 00:04:27;;;;;;;23.62;16.73;;;;;;;5.21;100.00;99742.70;1712213;82;22136;-83
2022/04/18 00:07:34;;;;;;;25.88;18.60;;;;;;;5.19;100.00;99731.17;1711293;81;21799;-83
2022/04/18 00:10:40;;;;;;;27.13;18.55;;;;;;;5.18;100.00;99722.70;1726793;82;21197;-82
2022/04/18 00:13:47;;;;;;;28.90;19.90;;;;;;;5.16;100.00;99712.49;1725864;82;21731;-82
2022/04/18 00:16:53;;;;;;;26.23;16.32;;;;;;;5.15;100.00;99717.58;1709642;81;21780;-82
2022/04/18 00:19:59;;;;;;;24.47;18.05;;;;;;;5.14;100.00;99709.09;1724992;82;21273;-76
2022/04/18 00:23:05;;;;;;;24.30;16.37;;;;;;;5.11;100.00;99712.11;1729358;82;21301;-81
2022/04/18 00:26:11;;;;;;;19.95;12.88;;;;;;;5.08;100.00;99701.56;1729724;82;21249;-83
2022/04/18 00:29:18;;;;;;;19.32;13.50;;;;;;;5.04;100.00;99696.14;1718011;82;21233;-84
2022/04/18 00:32:24;;;;;;;16.80;11.70;;;;;;;5.02;100.00;99696.78;1707073;82;21206;-84
2022/04/18 00:35:31;;;;;;;15.65;10.18;;;;;;;4.97;100.00;99692.33;1712572;82;21292;-83
2022/04/18 00:38:38;;;;;;;12.58;8.95;;;;;;;4.94;100.00;99679.08;1729034;81;21189;-83
2022/04/18 00:41:44;;;;;;;13.75;9.15;;;;;;;4.92;100.00;99678.40;1733513;82;21227;-83
2022/04/18 00:44:50;;;;;;;13.18;8.95;;;;;;;4.88;100.00;99669.21;1723196;82;21251;-83
2022/04/18 00:47:55;;;;;;;14.28;9.63;;;;;;;4.83;100.00;99674.25;1716771;82;21189;-82
2022/04/18 00:51:01;;;;;;;11.50;8.38;;;;;;;4.78;100.00;99655.41;1723017;82;21189;-82
2022/04/18 00:54:08;;;;;;;13.30;7.55;;;;;;;4.72;100.00;99654.17;1726393;81;21800;-81
2022/04/18 00:57:14;;;;;;;16.50;7.92;;;;;;;4.67;100.00;99659.20;1728133;82;21215;-82
2022/04/18 01:00:19;;;;;;;9.25;6.70;;;;;;;4.64;100.00;99646.47;1723600;82;21804;-82
2022/04/18 01:03:30;;;;;;;8.58;6.97;;;;;;;4.60;100.00;99638.63;1727724;82;21738;-83
2022/04/18 01:06:36;;;;;;;8.60;6.67;;;;;;;4.60;100.00;99631.02;1715286;82;21189;-81
2022/04/18 01:09:43;;;;;;;6.95;5.87;;;;;;;4.59;100.00;99630.67;1722242;82;21793;-82
2022/04/18 01:12:49;;;;;;;8.18;6.20;;;;;;;4.59;100.00;99632.88;1717519;82;21244;-82
2022/04/18 01:16:01;;;;;;;11.43;7.10;;;;;;;4.59;100.00;99630.67;1719393;82;21181;-82
2022/04/18 01:19:09;;;;;;;9.45;7.28;;;;;;;4.58;100.00;99618.14;1707569;81;21278;-83
2022/04/18 01:22:24;;;;;;;10.08;7.10;;;;;;;4.57;100.00;99616.45;1703628;82;21205;-82
2022/04/18 01:28:58;;;;;;;18.62;12.47;;;;;;;4.56;100.00;99601.17;1726073;82;21767;-82
2022/04/18 01:32:06;;;;;;;18.23;11.30;;;;;;;4.56;100.00;99599.34;1728910;81;21198;-82
2022/04/18 01:35:12;;;;;;;14.75;10.72;;;;;;;4.55;100.00;99585.94;1717669;82;21242;-82
2022/04/18 01:38:17;;;;;;;14.65;11.48;;;;;;;4.56;100.00;99588.98;1723857;82;21297;-82
2022/04/18 01:41:25;;;;;;;18.77;12.78;;;;;;;4.57;100.00;99574.47;1715966;81;21288;-82
2022/04/18 01:44:32;;;;;;;23.27;14.38;;;;;;;4.58;100.00;99578.87;1729993;81;21212;-82
2022/04/18 01:47:38;;;;;;;18.85;14.03;;;;;;;4.59;100.00;99583.27;1714546;82;21201;-82
2022/04/18 01:50:46;;;;;;;20.27;14.75;;;;;;;4.61;100.00;99574.00;1714353;81;21204;-81
2022/04/18 01:53:53;;;;;;;20.30;15.35;;;;;;;4.61;100.00;99564.52;1711837;82;21189;-81
2022/04/18 01:56:59;;;;;;;26.60;16.32;;;;;;;4.62;100.00;99553.17;1730085;82;21205;-82
2022/04/18 02:00:05;;;;;;;21.85;16.23;;;;;;;4.63;100.00;99549.96;1734677;82;21205;-82
2022/04/18 02:03:11;;;;;;;20.90;15.40;;;;;;;4.63;100.00;99553.52;1721935;82;21181;-82
2022/04/18 02:06:17;;;;;;;21.57;16.10;;;;;;;4.64;100.00;99548.44;1717023;82;21770;-82
2022/04/18 02:09:25;;;;;;;21.93;16.60;;;;;;;4.64;100.00;99544.88;1726299;82;21204;-82
2022/04/18 02:12:33;;;;;;;28.02;20.30;;;;;;;4.65;100.00;99544.72;1706880;82;21850;-82
2022/04/18 02:15:39;;;;;;;30.43;23.02;;;;;;;4.66;100.00;99550.50;1719084;81;21806;-82
2022/04/18 02:18:46;;;;;;;34.67;24.95;;;;;;;4.67;100.00;99541.36;1713678;82;21210;-82
2022/04/18 02:21:52;;;;;;;32.83;23.50;;;;;;;4.70;100.00;99546.45;1713396;81;21790;-82
2022/04/18 02:24:58;;;;;;;33.85;23.98;;;;;;;4.71;100.00;99538.69;1711665;82;21783;-81
2022/04/18 02:28:05;;;;;;;33.25;23.55;;;;;;;4.73;100.00;99534.45;1723918;82;21204;-82
2022/04/18 02:31:13;;;;;;;33.25;25.65;;;;;;;4.75;100.00;99540.55;1720863;82;21221;-82
2022/04/18 02:34:19;;;;;;;30.48;22.98;;;;;;;4.76;100.00;99540.42;1734310;81;21207;-82
2022/04/18 02:37:25;;;;;;;25.95;19.85;;;;;;;4.77;100.00;99535.34;1709702;82;21217;-82
2022/04/18 02:40:31;;;;;;;25.02;19.48;;;;;;;4.78;100.00;99546.52;1714382;82;21244;-81
2022/04/18 02:43:37;;;;;;;25.37;16.73;;;;;;;4.76;100.00;99535.00;1708725;82;21226;-81
2022/04/18 02:46:43;;;;;;;21.62;15.88;;;;;;;4.76;100.00;99529.58;1714433;82;21202;-81
2022/04/18 02:49:50;;;;;;;18.87;14.75;;;;;;;4.75;100.00;99527.01;1708183;81;21205;-81
2022/04/18 02:52:57;;;;;;;20.27;15.45;;;;;;;4.73;100.00;99523.11;1721065;82;21201;-81
2022/04/18 02:56:04;;;;;;;17.02;14.50;;;;;;;4.72;100.00;99522.77;1730135;81;21230;-83
2022/04/18 02:59:11;;;;;;;18.25;14.18;;;;;;;4.71;100.00;99520.23;1725456;82;21870;-83
2022/04/18 03:02:17;;;;;;;16.27;13.08;;;;;;;4.68;100.00;99522.73;1714404;82;21269;-83
2022/04/18 03:05:23;;;;;;;16.48;14.18;;;;;;;4.66;100.00;99517.12;1727568;82;21795;-83
2022/04/18 03:08:30;;;;;;;19.75;15.65;;;;;;;4.63;100.00;99517.45;1721122;82;21204;-83
2022/04/18 03:11:36;;;;;;;20.37;16.93;;;;;;;4.61;100.00;99523.00;1714471;81;21237;-83
2022/04/18 03:14:44;;;;;;;22.35;17.55;;;;;;;4.61;100.00;99517.59;1707370;81;21198;-84
2022/04/18 03:17:52;;;;;;;22.35;16.70;;;;;;;4.60;100.00;99529.44;1723355;82;21248;-83
2022/04/18 03:20:58;;;;;;;21.65;16.05;;;;;;;4.58;100.00;99519.28;1712220;81;21212;-83
2022/04/18 03:24:03;;;;;;;21.93;17.12;;;;;;;4.57;100.00;99525.71;1722490;81;21188;-84
2022/04/18 03:27:11;;;;;;;19.95;15.70;;;;;;;4.55;100.00;99517.72;1712190;81;21204;-84
2022/04/18 03:30:16;;;;;;;21.55;16.85;;;;;;;4.56;100.00;99519.92;1723484;82;21216;-83
2022/04/18 03:33:21;;;;;;;20.88;17.25;;;;;;;4.54;100.00;99516.03;1730631;82;21236;-84
2022/04/18 03:39:57;;;;;;;17.60;14.87;;;;;;;4.53;100.00;99520.25;1706945;82;21309;-85
2022/04/18 03:43:01;;;;;;;19.52;14.98;;;;;;;4.52;100.00;99515.34;1712002;81;21206;-85
2022/04/18 03:46:09;;;;;;;20.37;14.65;;;;;;;4.50;100.00;99530.03;1705447;81;21941;-85
2022/04/18 03:49:14;;;;;;;16.62;13.75;;;;;;;4.48;100.00;99532.91;1714128;81;21292;-85
2022/04/18 03:52:20;;;;;;;19.57;14.00;;;;;;;4.46;100.00;99521.87;1711623;82;21759;-85
2022/04/18 03:55:26;;;;;;;17.55;13.55;;;;;;;4.44;100.00;99521.20;1728865;82;21181;-85
2022/04/18 03:58:34;;;;;;;17.52;13.00;;;;;;;4.42;100.00;99516.42;1721688;82;21190;-85
2022/04/18 04:01:40;;;;;;;15.80;12.50;;;;;;;4.39;100.00;99514.89;1714622;81;21268;-85
2022/04/18 04:04:46;;;;;;;15.05;11.80;;;;;;;4.38;100.00;99505.08;1724950;82;21197;-84
2022/04/18 04:07:53;;;;;;;15.05;11.15;;;;;;;4.36;100.00;99500.30;1715842;81;21178;-85
2022/04/18 04:11:00;;;;;;;12.45;10.35;;;;;;;4.31;100.00;99496.70;1731231;82;21794;-85
2022/04/18 04:14:08;;;;;;;13.93;10.18;;;;;;;4.28;100.00;99488.92;1729524;81;21184;-86
2022/04/18 04:17:15;;;;;;;12.90;9.45;;;;;;;4.24;100.00;99486.17;1722993;81;21225;-84
2022/04/18 04:20:23;;;;;;;11.00;8.68;;;;;;;4.19;100.00;99477.67;1725336;81;21201;-85
2022/04/18 04:23:31;;;;;;;16.07;8.83;;;;;;;4.17;100.00;99484.23;1728137;81;21224;-86
2022/04/18 04:26:59;;;;;;;9.65;8.10;;;;;;;4.14;100.00;99486.77;1711144;81;21184;-86
2022/04/18 04:30:05;;;;;;;9.90;7.78;;;;;;;4.09;100.00;99488.58;1712011;82;21189;-86
2022/04/18 04:33:15;;;;;;;10.75;9.03;;;;;;;4.05;100.00;99474.16;1752152;80;21242;-86
2022/04/18 04:36:22;;;;;;;10.53;8.10;;;;;;;3.99;100.00;99476.95;1718120;82;21276;-86
2022/04/18 04:39:27;;;;;;;9.58;7.28;;;;;;;3.97;100.00;99480.84;1721249;81;21198;-87
2022/04/18 04:42:33;;;;;;;7.72;6.50;;;;;;;3.95;100.00;99484.18;1727526;81;21274;-86
2022/04/18 04:45:38;;;;;;;8.33;6.45;;;;;;;3.90;100.00;99486.00;1732831;80;21197;-86
2022/04/18 04:48:47;;;;;;;8.45;6.30;;;;;;;3.88;100.00;99474.48;1727060;79;21279;-86
2022/04/18 04:51:53;;;;;;;7.42;6.40;;;;;;;3.87;100.00;99463.83;1714573;82;21236;-85
2022/04/18 04:54:58;;;;;;;8.75;6.95;;;;;;;3.85;100.00;99468.87;1720293;82;21194;-85
2022/04/18 04:58:09;;;;;;;;;;;;;;;3.83;100.00;99460.58;1704366;82;21814;-86
2022/04/18 05:01:20;;;;;;;8.58;6.55;;;;;;;3.82;100.00;99446.20;1711508;81;20558;-84
2022/04/18 05:04:27;;;;;;;11.33;7.35;;;;;;;3.82;100.00;99452.97;1701026;82;21182;-85
2022/04/18 05:07:34;;;;;;;6.87;6.03;;;;;;;3.80;100.00;99460.37;1712206;82;21746;-85
2022/04/18 05:10:43;;;;;;;8.53;7.60;;;;;;;3.80;100.00;99452.76;1719550;81;21217;-85
2022/04/18 05:13:52;;;;;;;7.75;5.95;;;;;;;3.82;100.00;99444.00;1722360;82;21193;-85
2022/04/18 05:17:08;;;;;;;7.83;5.62;;;;;;;3.80;100.00;99444.14;1712175;81;21192;-85
2022/04/18 05:20:18;;;;;;;8.48;7.17;;;;;;;3.80;100.00;99445.48;1704024;82;21249;-85
2022/04/18 05:23:27;;;;;;;9.48;6.70;;;;;;;3.79;100.00;99454.62;1724800;80;21906;-86
2022/04/18 05:26:34;;;;;;;7.83;6.67;;;;;;;3.81;100.00;99437.75;1693440;81;21271;-86
2022/04/18 05:29:40;;;;;;;8.05;6.70;;;;;;;3.83;100.00;99434.38;1729881;82;21212;-86
2022/04/18 05:32:46;;;;;;;9.88;6.67;;;;;;;3.85;100.00;99432.34;1715417;80;21272;-86
2022/04/18 05:35:53;;;;;;;7.17;5.97;;;;;;;3.90;100.00;99424.27;1722249;82;21189;-86
2022/04/18 05:39:01;;;;;;;7.97;6.65;;;;;;;3.93;100.00;99435.64;1710494;82;21301;-86
2022/04/18 05:42:10;;;;;;;8.75;6.83;;;;;;;3.97;100.00;99417.25;1718140;81;21258;-84
2022/04/18 05:45:17;;;;;;;9.30;7.05;;;;;;;4.02;100.00;99418.47;1716212;82;21224;-85
2022/04/18 05:48:30;;;;;;;6.42;5.78;;;;;;;4.08;100.00;99423.77;1722329;81;21189;-77
2022/04/18 05:51:37;;;;;;;7.83;6.92;;;;;;;4.15;100.00;99428.06;1717327;82;21769;-77
2022/04/18 05:54:42;;;;;;;7.87;6.55;;;;;;;4.16;100.00;99420.28;1723295;82;21832;-84
2022/04/18 05:57:52;;;;;;;8.55;6.67;;;;;;;4.17;100.00;99421.47;1724831;82;21245;-84
2022/04/18 06:00:56;;;;;;;8.15;6.95;;;;;;;4.18;100.00;99420.96;1694340;83;21791;-85
2022/04/18 06:04:03;;;;;;;9.30;7.60;;;;;;;4.18;100.00;99428.58;1711703;81;21246;-85
2022/04/18 06:07:12;;;;;;;7.35;6.35;;;;;;;4.18;100.00;99416.39;1697948;83;21208;-84
2022/04/18 06:10:40;;;;;;;6.30;5.70;;;;;;;4.19;100.00;99403.70;1740375;81;21208;-84
2022/04/18 06:13:45;;;;;;;7.95;6.15;;;;;;;4.23;100.00;99407.30;1694025;83;21213;-85
2022/04/18 06:16:56;;;;;;;7.80;5.83;;;;;;;4.27;100.00;99401.92;1726945;81;21166;-83
2022/04/18 06:20:03;;;;;;;7.10;6.40;;;;;;;4.34;100.00;99411.12;1718580;81;21244;-84
2022/04/18 06:23:08;;;;;;;7.40;6.12;;;;;;;4.37;100.00;99409.94;1728471;80;21217;-83
2022/04/18 06:26:17;;;;;;;5.92;5.20;;;;;;;4.39;100.00;99400.33;1718621;82;21227;-84
2022/04/18 06:29:23;;;;;;;7.55;6.47;;;;;;;4.44;100.00;99402.05;1699464;82;21284;-84
2022/04/18 06:32:31;;;;;;;8.85;7.33;;;;;;;4.46;100.00;99391.38;1724703;82;21472;-83
2022/04/18 06:35:36;;;;;;;9.15;6.53;;;;;;;4.53;100.00;99395.67;1719072;82;21217;-83
2022/04/18 06:38:42;;;;;;;7.80;6.35;;;;;;;4.58;100.00;99375.22;1718645;82;21192;-84
2022/04/18 06:41:50;;;;;;;8.75;7.22;;;;;;;4.62;100.00;99389.30;1717740;81;21181;-84
2022/04/18 06:44:59;;;;;;;7.65;6.85;;;;;;;4.65;100.00;99383.54;1728968;81;21225;-84
2022/04/18 06:48:05;;;;;;;8.20;7.28;;;;;;;4.71;100.00;99385.63;1729267;81;21790;-84
2022/04/18 06:51:26;;;;;;;8.65;7.67;;;;;;;4.78;100.00;99383.95;1643501;82;21250;-84
2022/04/18 06:54:34;;;;;;;9.20;8.15;;;;;;;4.88;100.00;99377.90;1708790;80;21197;-83
2022/04/18 06:57:40;;;;;;;9.68;8.73;;;;;;;4.97;100.00;99376.08;1726723;82;21212;-84
2022/04/18 07:00:46;;;;;;;11.30;9.05;;;;;;;5.07;100.00;99371.88;1720954;82;21226;-85
2022/04/18 07:03:53;;;;;;;10.43;8.68;;;;;;;5.18;100.00;99366.17;1717727;80;21754;-83
2022/04/18 07:07:00;;;;;;;10.20;8.70;;;;;;;5.26;100.00;99368.05;1679388;83;21229;-83
2022/04/18 07:10:08;;;;;;;10.75;8.25;;;;;;;5.32;100.00;99364.69;1728779;80;21180;-84
2022/04/18 07:13:13;;;;;;;10.00;8.93;;;;;;;5.36;100.00;99361.48;1735955;80;21201;-84
2022/04/18 07:16:18;;;;;;;10.18;9.08;;;;;;;5.40;100.00;99367.40;1728831;82;22100;-84
2022/04/18 07:19:28;;;;;;;9.03;8.13;;;;;;;5.41;100.00;99354.69;1727445;81;21206;-84
2022/04/18 07:22:39;;;;;;;10.75;8.40;;;;;;;5.43;100.00;99368.44;1728347;81;21781;-77
2022/04/18 07:25:47;;;;;;;10.28;8.85;;;;;;;5.49;100.00;99344.70;1702910;80;21273;-83
2022/04/18 07:28:59;;;;;;;10.18;8.90;;;;;;;5.58;100.00;99361.34;1720945;82;21726;-83
2022/04/18 07:32:06;;;;;;;10.88;9.83;;;;;;;5.61;100.00;99337.11;1718629;81;21288;-83
2022/04/18 07:35:15;;;;;;;9.78;8.78;;;;;;;5.65;100.00;99341.18;1718479;82;21715;-77
2022/04/18 07:41:48;;;;;;;9.55;8.53;;;;;;;5.69;100.00;99326.23;1715146;81;21212;-84
2022/04/18 07:44:53;;;;;;;11.68;9.55;;;;;;;5.68;100.00;99335.40;1683066;83;21263;-83
2022/04/18 07:48:02;;;;;;;14.58;9.48;;;;;;;5.69;100.00;99331.66;1730685;80;21767;-83
2022/04/18 07:54:37;;;;;;;9.70;8.70;;;;;;;5.74;100.00;99329.80;1720212;81;21189;-83
2022/04/18 07:57:42;;;;;;;10.88;9.78;;;;;;;5.75;100.00;99317.44;1707225;82;21297;-83
2022/04/18 08:00:50;;;;;;;11.55;10.23;;;;;;;5.79;100.00;99309.30;1658891;84;21315;-84
2022/04/18 08:03:57;;;;;;;10.65;9.50;;;;;;;5.89;100.00;99318.12;1733361;81;21209;-83
2022/04/18 08:07:03;;;;;;;13.22;11.83;;;;;;;5.97;100.00;99317.78;1723105;81;21228;-84
2022/04/18 08:10:11;;;;;;;12.47;11.12;;;;;;;6.03;100.00;99317.97;1731042;81;21185;-83
2022/04/18 08:13:16;;;;;;;12.80;10.65;;;;;;;6.12;100.00;99340.02;1721027;81;21851;-82
2022/04/18 08:16:40;;;;;;;9.70;8.65;;;;;;;6.18;100.00;99314.04;1720637;81;21237;-83
2022/04/18 08:19:52;;;;;;;10.48;9.38;;;;;;;6.21;100.00;99303.33;1725676;80;21260;-83
2022/04/18 08:22:57;;;;;;;11.55;10.35;;;;;;;6.24;100.00;99316.05;1724273;80;21852;-83
2022/04/18 08:26:21;;;;;;;10.55;9.30;;;;;;;6.29;100.00;99298.73;1735402;79;21161;-82
2022/04/18 08:29:29;;;;;;;13.20;11.50;;;;;;;6.33;100.00;99300.08;1727849;80;21746;-83
2022/04/18 08:32:46;;;;;;;13.20;10.98;;;;;;;6.37;100.00;99309.58;1727549;80;21169;-82
2022/04/18 08:35:52;;;;;;;12.68;11.33;;;;;;;6.38;100.00;99312.63;1725901;81;21260;-82
2022/04/18 08:38:57;;;;;;;16.02;12.50;;;;;;;6.37;100.00;99305.52;1725225;81;21181;-82
2022/04/18 08:42:11;;;;;;;15.50;13.62;;;;;;;6.43;100.00;99298.53;1683471;83;21201;-82
2022/04/18 08:45:23;;;;;;;15.60;13.25;;;;;;;6.48;100.00;99293.93;1733460;81;21169;-83
2022/04/18 08:55:22;;;;;;;17.70;15.83;;;;;;;6.56;100.00;99285.76;1664604;84;22020;-82
2022/04/18 08:58:31;;;;;;;19.05;17.05;;;;;;;6.55;100.00;99282.72;1620945;85;21228;-84
2022/04/18 09:01:38;;;;;;;15.15;13.55;;;;;;;6.54;100.00;99280.52;1714768;80;21201;-85
2022/04/18 09:05:02;;;;;;;17.57;15.78;;;;;;;6.56;100.00;99281.17;1723949;82;21767;-84
2022/04/18 09:08:12;;;;;;;16.45;14.55;;;;;;;6.60;100.00;99291.18;1704138;82;21240;-85
2022/04/18 09:11:38;;;;;;;19.48;16.45;;;;;;;6.63;100.00;99284.02;1724823;81;21357;-85
2022/04/18 09:14:51;;;;;;;19.10;17.00;;;;;;;6.63;100.00;99285.37;1665021;84;21259;-85
2022/04/18 09:17:56;;;;;;;17.67;15.45;;;;;;;6.65;100.00;99283.34;1719411;81;21253;-85
2022/04/18 09:21:11;;;;;;;20.05;17.65;;;;;;;6.61;100.00;99288.28;1704270;81;21164;-85
2022/04/18 09:24:36;;;;;;;16.70;14.90;;;;;;;6.61;100.00;99291.00;1687540;80;21763;-84
2022/04/18 09:27:43;;;;;;;22.85;17.32;;;;;;;6.62;100.00;99279.61;1702485;81;22518;-85
2022/04/18 09:30:51;;;;;;;19.35;14.65;;;;;;;6.63;100.00;99274.02;1706569;81;21262;-85
2022/04/18 09:34:04;;;;;;;20.25;15.83;;;;;;;6.68;100.00;99283.01;1712425;81;21336;-85
2022/04/18 09:37:24;;;;;;;17.77;15.95;;;;;;;6.71;100.00;99271.77;1731175;81;21269;-85
2022/04/18 09:40:31;;;;;;;20.77;16.87;;;;;;;6.71;100.00;99275.84;1706188;81;21593;-85
2022/04/18 09:43:55;;;;;;;17.30;15.43;;;;;;;6.70;100.00;99266.00;1728692;81;21188;-85
2022/04/18 09:47:04;;;;;;;15.95;14.35;;;;;;;6.68;100.00;99272.62;1726197;80;21496;-85
2022/04/18 09:54:05;;;;;;;15.93;13.83;;;;;;;6.62;100.00;99281.81;1727678;81;21265;-82
2022/04/18 09:57:15;;;;;;;18.05;15.15;;;;;;;6.56;100.00;99281.69;1724048;81;21201;-83
2022/04/18 10:00:20;;;;;;;21.82;16.77;;;;;;;6.52;100.00;99287.13;1718825;80;21217;-78
2022/04/18 10:03:26;;;;;;;24.80;20.95;;;;;;;6.49;100.00;99271.17;1705958;81;21257;-84
2022/04/18 10:06:32;;;;;;;20.27;17.85;;;;;;;6.49;100.00;99275.24;1734658;80;21196;-77
2022/04/18 10:09:38;;;;;;;18.52;16.62;;;;;;;6.52;100.00;99263.52;1693220;83;21189;-83
2022/04/18 10:12:45;;;;;;;20.65;17.17;;;;;;;6.53;100.00;99268.44;1726943;82;21550;-84
2022/04/18 10:15:51;;;;;;;19.40;16.12;;;;;;;6.50;100.00;99259.30;1739709;80;21789;-83
2022/04/18 10:19:03;;;;;;;20.85;16.95;;;;;;;6.49;100.00;99257.58;1730897;81;21641;-84
2022/04/18 10:22:51;;;;;;;21.80;18.82;;;;;;;6.50;100.00;99270.17;1722243;81;21217;-84
2022/04/18 10:26:36;;;;;;;22.10;18.40;;;;;;;6.48;100.00;99262.17;1702162;83;21235;-82
2022/04/18 10:29:50;;;;;;;19.57;16.32;;;;;;;6.45;100.00;99257.62;1735257;82;21197;-83
2022/04/18 10:32:56;;;;;;;21.60;16.30;;;;;;;6.42;100.00;99245.74;1727628;81;21232;-83
2022/04/18 10:36:04;;;;;;;22.42;18.12;;;;;;;6.37;100.00;99245.75;1715825;81;21236;-83
2022/04/18 10:39:14;;;;;;;18.65;16.40;;;;;;;6.38;100.00;99255.59;1712403;81;21946;-83
2022/04/18 10:42:37;;;;;;;18.75;16.20;;;;;;;6.40;100.00;99255.44;1722822;82;21760;-83
2022/04/18 10:45:42;;;;;;;17.73;15.13;;;;;;;6.44;100.00;99247.76;1719432;80;21181;-83
2022/04/18 10:48:48;;;;;;;19.77;17.12;;;;;;;6.47;100.00;99247.42;1729174;81;21764;-83
2022/04/18 10:51:56;;;;;;;24.57;17.57;;;;;;;6.49;100.00;99242.64;1727428;80;21733;-82
2022/04/18 10:55:07;;;;;;;24.55;15.93;;;;;;;6.51;100.00;99231.11;1739528;79;21264;-84
2022/04/18 10:58:23;;;;;;;18.92;14.80;;;;;;;6.54;100.00;99218.51;1710295;81;21210;-84
2022/04/18 11:01:28;;;;;;;18.70;14.93;;;;;;;6.58;100.00;99214.42;1708524;82;21213;-82
2022/04/18 11:04:39;;;;;;;18.45;14.55;;;;;;;6.63;100.00;99205.22;1724926;82;21260;-83
2022/04/18 11:07:48;;;;;;;15.08;13.00;;;;;;;6.73;100.00;99205.00;1716804;82;21272;-82
2022/04/18 11:10:54;;;;;;;16.65;13.05;;;;;;;6.80;100.00;99203.27;1723865;82;21197;-82
2022/04/18 11:14:01;;;;;;;13.62;11.50;;;;;;;6.83;100.00;99202.92;1710338;82;21811;-82
2022/04/18 11:17:09;;;;;;;15.18;11.80;;;;;;;6.89;100.00;99189.96;1720110;82;21790;-83
2022/04/18 11:20:41;;;;;;;11.85;10.32;;;;;;;6.94;100.00;99183.98;1730917;82;21624;-82
2022/04/18 11:23:48;;;;;;;10.95;8.83;;;;;;;6.98;100.00;99189.40;1727981;82;21188;-82
2022/04/18 11:26:53;;;;;;;13.03;10.65;;;;;;;6.97;100.00;99193.16;1727736;82;21217;-82
2022/04/18 11:30:15;;;;;;;11.90;9.55;;;;;;;6.97;100.00;99200.79;1725272;82;21217;-81
2022/04/18 11:33:19;;;;;;;;;;;;;;;6.98;100.00;99194.84;1731773;82;21755;-82
2022/04/18 11:36:23;;;;;;;12.30;9.58;;;;;;;6.99;100.00;99196.00;1733624;82;20217;-82
2022/04/18 11:39:29;;;;;;;12.68;8.95;;;;;;;7.00;100.00;99204.48;1719184;82;21783;-82
2022/04/18 11:42:37;;;;;;;11.60;9.53;;;;;;;7.02;100.00;99201.61;1716489;81;21268;-82
2022/04/18 11:45:43;;;;;;;11.93;8.70;;;;;;;7.06;100.00;99211.10;1733589;81;21188;-81
2022/04/18 11:48:48;;;;;;;10.75;9.48;;;;;;;7.09;100.00;99210.72;1728384;82;21221;-82
2022/04/18 11:51:53;;;;;;;11.83;9.10;;;;;;;7.11;100.00;99209.53;1725295;82;21288;-82
2022/04/18 11:55:21;;;;;;;9.58;8.55;;;;;;;7.11;100.00;99205.45;1710469;82;21217;-82
2022/04/18 11:58:28;;;;;;;11.45;8.90;;;;;;;7.11;100.00;99203.25;1729800;82;21249;-81
2022/04/18 12:08:26;;;;;;;9.43;8.43;;;;;;;7.20;100.00;99213.52;1678019;83;21217;-80
2022/04/18 12:11:35;;;;;;;;;;;;;;;7.22;100.00;99196.53;1691144;83;21205;-81
2022/04/18 12:14:41;;;;;;;9.35;7.78;;;;;;;7.23;100.00;99208.58;1712902;81;20201;-82
2022/04/18 12:17:47;;;;;;;8.85;7.95;;;;;;;7.22;100.00;99182.93;1725559;82;21209;-82
2022/04/18 12:20:57;;;;;;;8.00;7.20;;;;;;;7.23;100.00;99199.05;1735375;82;21201;-82
2022/04/18 12:24:04;;;;;;;7.83;7.13;;;;;;;7.25;100.00;99201.10;1731489;82;21185;-82
2022/04/18 12:27:10;;;;;;;12.47;9.43;;;;;;;7.30;100.00;99206.84;1719382;82;21205;-82
2022/04/18 12:30:16;;;;;;;8.50;7.30;;;;;;;7.31;100.00;99203.08;1698334;83;21218;-81
2022/04/18 12:33:30;;;;;;;9.63;6.90;;;;;;;7.35;100.00;99203.57;1726804;82;21217;-81
2022/04/18 12:36:37;;;;;;;9.50;8.30;;;;;;;7.39;100.00;99203.55;1716874;82;21212;-81
2022/04/18 12:39:43;;;;;;;10.50;7.03;;;;;;;7.43;100.00;99189.39;1732248;81;21212;-81
2022/04/18 12:42:58;;;;;;;9.03;6.37;;;;;;;7.46;100.00;99193.60;1731258;82;21198;-82
2022/04/18 12:46:14;;;;;;;6.87;5.47;;;;;;;7.47;100.00;99179.48;1722547;82;21209;-82
2022/04/18 12:49:21;;;;;;;7.78;6.60;;;;;;;7.48;100.00;99183.89;1723948;82;21209;-82
2022/04/18 12:52:34;;;;;;;9.43;6.58;;;;;;;7.48;100.00;99175.23;1723356;82;21185;-81
2022/04/18 12:55:40;;;;;;;8.15;6.42;;;;;;;7.53;100.00;99175.53;1702284;82;21264;-82
2022/04/18 12:58:46;;;;;;;10.63;6.37;;;;;;;7.60;100.00;99178.34;1719006;81;21739;-82
2022/04/18 13:01:52;;;;;;;6.58;5.55;;;;;;;7.62;100.00;99168.10;1728175;82;21201;-82
2022/04/18 13:05:09;;;;;;;8.65;6.60;;;;;;;7.59;100.00;99169.86;1730657;81;21201;-82
2022/04/18 13:08:15;;;;;;;7.65;6.17;;;;;;;7.54;100.00;99175.85;1738030;81;21193;-82
2022/04/18 13:11:22;;;;;;;8.93;5.97;;;;;;;7.47;100.00;99172.67;1727444;81;21209;-78
2022/04/18 13:14:30;;;;;;;8.53;7.08;;;;;;;7.43;100.00;99185.31;1728624;82;21227;-77
2022/04/18 13:17:37;;;;;;;8.53;6.22;;;;;;;7.45;100.00;99165.23;1715543;82;21765;-81
2022/04/18 13:20:45;;;;;;;10.15;6.67;;;;;;;7.45;100.00;99169.31;1714661;82;21206;-82
2022/04/18 13:23:51;;;;;;;14.70;8.58;;;;;;;7.42;100.00;99165.06;1718739;82;21241;-77
2022/04/18 13:26:58;;;;;;;12.15;7.42;;;;;;;7.40;100.00;99158.98;1716547;82;21192;-77
2022/04/18 13:30:04;;;;;;;14.35;8.73;;;;;;;7.37;100.00;99158.81;1722962;82;21801;-78
2022/04/18 13:33:09;;;;;;;8.53;5.75;;;;;;;7.37;100.00;99174.30;1707813;82;21213;-78
2022/04/18 13:36:37;;;;;;;9.45;6.55;;;;;;;7.32;100.00;99168.05;1687297;83;21203;-78
2022/04/18 13:39:59;;;;;;;7.00;5.35;;;;;;;7.26;100.00;99176.95;1724558;82;21241;-78
2022/04/18 13:43:05;;;;;;;9.83;6.35;;;;;;;7.19;100.00;99169.17;1709232;81;21232;-78
2022/04/18 13:46:11;;;;;;;7.10;5.55;;;;;;;7.14;100.00;99171.08;1723499;81;21213;-78
2022/04/18 13:49:17;;;;;;;10.70;5.67;;;;;;;7.09;100.00;99172.66;1722402;82;21213;-78
2022/04/18 13:52:24;;;;;;;7.47;5.80;;;;;;;7.08;100.00;99175.05;1722507;81;21845;-77
2022/04/18 13:55:30;;;;;;;6.97;4.75;;;;;;;7.07;100.00;99164.69;1732010;81;21233;-77
2022/04/18 13:58:35;;;;;;;6.03;4.60;;;;;;;7.07;100.00;99166.56;1733044;81;21213;-77
2022/04/18 14:01:40;;;;;;;7.22;4.97;;;;;;;7.05;100.00;99176.76;1730178;81;21149;-78
2022/04/18 14:04:46;;;;;;;11.30;6.80;;;;;;;7.04;100.00;99183.23;1722742;81;21217;-77
2022/04/18 14:07:54;;;;;;;9.58;6.25;;;;;;;7.05;100.00;99173.52;1733771;81;21264;-78
2022/04/18 14:11:00;;;;;;;7.40;5.83;;;;;;;7.09;100.00;99187.61;1721701;82;21850;-77
2022/04/18 14:14:05;;;;;;;9.70;6.00;;;;;;;7.07;100.00;99198.67;1729303;81;21212;-77
2022/04/18 14:20:36;;;;;;;8.90;5.90;;;;;;;6.96;100.00;99201.80;1730146;82;21253;-77
2022/04/18 14:23:41;;;;;;;7.45;5.50;;;;;;;6.90;100.00;99213.39;1726693;81;21933;-78
2022/04/18 14:26:47;;;;;;;7.97;5.37;;;;;;;6.87;100.00;99213.77;1710775;82;22925;-78
2022/04/18 14:29:55;;;;;;;8.38;4.47;;;;;;;6.83;100.00;99195.61;1696271;83;21264;-78
2022/04/18 14:33:03;;;;;;;8.38;5.87;;;;;;;6.80;100.00;99191.04;1715780;82;21236;-78
2022/04/18 14:36:10;;;;;;;10.72;7.35;;;;;;;6.78;100.00;99184.44;1711057;82;21669;-78
2022/04/18 14:39:18;;;;;;;12.93;7.00;;;;;;;6.79;100.00;99187.99;1723209;82;21210;-77
2022/04/18 14:42:24;;;;;;;10.15;7.85;;;;;;;6.77;100.00;99181.88;1697763;83;21238;-77
2022/04/18 14:45:31;;;;;;;8.43;6.60;;;;;;;6.73;100.00;99173.26;1693538;83;21315;-77
2022/04/18 14:48:37;;;;;;;11.10;6.95;;;;;;;6.69;100.00;99161.56;1701570;83;21256;-77
2022/04/18 14:51:43;;;;;;;8.93;5.80;;;;;;;6.65;100.00;99151.56;1716986;82;21208;-77
2022/04/18 14:54:50;;;;;;;9.28;6.17;;;;;;;6.62;100.00;99145.11;1728306;81;21258;-77
2022/04/18 14:57:55;;;;;;;8.78;6.45;;;;;;;6.59;100.00;99155.00;1724274;82;21244;-78
2022/04/18 15:01:01;;;;;;;9.10;5.85;;;;;;;6.55;100.00;99160.45;1729435;82;21272;-78
2022/04/18 15:04:08;;;;;;;10.68;6.00;;;;;;;6.52;100.00;99154.01;1721782;82;21197;-78
2022/04/18 15:07:15;;;;;;;14.80;9.48;;;;;;;6.49;100.00;99166.58;1731697;82;21215;-78
2022/04/18 15:10:20;;;;;;;11.08;7.40;;;;;;;6.45;100.00;99149.81;1733029;82;21192;-77